Time;durP1;ratioP1;P1;durP2;ratioP2;P2;SDS_P1;SDS_P2;PMS_P1;PMS_P2;Temp;Humidity;BMP_temperature;BMP_pressure;BME280_temperature;BME280_humidity;BME280_pressure;Samples;Min_cycle;Max_cycle;Signal;HPM_P1;HPM_P2
2023/01/31 00:02:16;;;;;;;13.30;2.53;;;4.40;99.90;;;;;;4975928;28;20671;-71
2023/01/31 00:04:42;;;;;;;14.40;2.70;;;4.40;99.90;;;;;;4976315;28;20665;-71
2023/01/31 00:07:09;;;;;;;14.57;2.30;;;4.50;99.90;;;;;;4977026;28;20567;-72
2023/01/31 00:09:36;;;;;;;12.50;2.30;;;4.40;99.90;;;;;;4976891;28;20620;-71
2023/01/31 00:12:03;;;;;;;15.87;2.70;;;4.40;99.90;;;;;;4976537;28;20578;-71
2023/01/31 00:14:30;;;;;;;13.93;2.33;;;4.50;99.90;;;;;;4975502;28;20202;-71
2023/01/31 00:16:56;;;;;;;9.53;2.47;;;4.40;99.90;;;;;;4976300;28;20213;-71
2023/01/31 00:19:24;;;;;;;13.10;3.03;;;4.50;99.90;;;;;;4975854;28;20201;-71
2023/01/31 00:21:53;;;;;;;16.80;3.33;;;4.50;99.90;;;;;;4975685;28;20304;-71
2023/01/31 00:24:19;;;;;;;8.13;2.20;;;4.40;99.90;;;;;;4975688;28;20202;-71
2023/01/31 00:26:47;;;;;;;11.80;2.33;;;4.40;99.90;;;;;;4976504;28;20217;-71
2023/01/31 00:29:14;;;;;;;13.17;1.97;;;4.40;99.90;;;;;;4975859;28;20220;-71
2023/01/31 00:31:40;;;;;;;17.53;2.97;;;4.60;99.90;;;;;;4975955;28;20660;-71
2023/01/31 00:34:07;;;;;;;13.60;1.83;;;4.60;99.90;;;;;;4976494;28;20571;-71
2023/01/31 00:36:36;;;;;;;14.17;2.40;;;4.60;99.90;;;;;;4975324;28;20226;-71
2023/01/31 00:39:05;;;;;;;13.13;2.40;;;4.60;99.90;;;;;;4968298;28;20201;-71
2023/01/31 00:41:33;;;;;;;11.87;1.80;;;4.70;99.90;;;;;;4975410;28;20657;-71
2023/01/31 00:44:00;;;;;;;17.03;2.37;;;4.70;99.90;;;;;;4975604;28;20649;-71
2023/01/31 00:46:27;;;;;;;13.20;2.13;;;4.70;99.90;;;;;;4975462;28;20562;-71
2023/01/31 00:48:55;;;;;;;9.77;1.30;;;4.80;99.90;;;;;;4975590;28;20205;-71
2023/01/31 00:51:23;;;;;;;9.03;1.67;;;4.80;99.90;;;;;;4962747;28;20260;-71
2023/01/31 00:53:51;;;;;;;10.00;1.90;;;4.70;99.90;;;;;;4975132;28;20221;-71
2023/01/31 00:56:21;;;;;;;7.97;1.50;;;4.60;99.90;;;;;;4975388;28;20232;-71
2023/01/31 00:58:49;;;;;;;7.40;1.40;;;4.40;99.90;;;;;;4975124;28;20219;-71
2023/01/31 01:01:17;;;;;;;11.30;2.07;;;4.50;99.90;;;;;;4976016;28;20286;-71
2023/01/31 01:03:45;;;;;;;11.70;1.80;;;4.60;99.90;;;;;;4973744;28;20209;-71
2023/01/31 01:06:12;;;;;;;11.23;1.57;;;4.70;99.90;;;;;;4975925;28;20221;-71
2023/01/31 01:08:40;;;;;;;16.87;2.43;;;4.70;99.90;;;;;;4974767;28;20551;-71
2023/01/31 01:11:10;;;;;;;10.20;2.07;;;4.70;99.90;;;;;;4975292;28;20214;-72
2023/01/31 01:13:37;;;;;;;13.03;2.17;;;4.70;99.90;;;;;;4974870;28;20206;-71
2023/01/31 01:16:06;;;;;;;15.57;2.47;;;4.70;99.90;;;;;;4975296;28;20218;-71
2023/01/31 01:18:34;;;;;;;12.27;2.30;;;4.70;99.90;;;;;;4975322;28;20640;-71
2023/01/31 01:21:06;;;;;;;13.73;2.17;;;4.60;99.90;;;;;;4964235;28;20203;-71
2023/01/31 01:23:33;;;;;;;12.27;2.27;;;4.60;99.90;;;;;;4972639;28;20213;-71
2023/01/31 01:25:59;;;;;;;12.83;1.97;;;4.60;99.90;;;;;;4974596;28;20224;-72
2023/01/31 01:28:27;;;;;;;10.53;1.97;;;4.60;99.90;;;;;;4974844;28;20656;-71
2023/01/31 01:30:54;;;;;;;13.73;2.43;;;4.50;99.90;;;;;;4975576;28;20568;-74
2023/01/31 01:33:21;;;;;;;11.30;1.80;;;4.60;99.90;;;;;;4974474;28;20576;-73
2023/01/31 01:35:48;;;;;;;9.17;2.20;;;4.60;99.90;;;;;;4975075;28;20248;-73
2023/01/31 01:38:14;;;;;;;15.17;2.40;;;4.60;99.90;;;;;;4975230;28;20208;-73
2023/01/31 01:40:41;;;;;;;11.50;2.10;;;4.50;99.90;;;;;;4974504;28;20205;-74
2023/01/31 01:43:11;;;;;;;7.53;2.10;;;4.50;99.90;;;;;;4974912;28;20235;-73
2023/01/31 01:45:39;;;;;;;12.27;1.87;;;4.50;99.90;;;;;;4975087;28;20248;-73
2023/01/31 01:48:08;;;;;;;10.60;2.63;;;4.50;99.90;;;;;;4974200;28;20594;-74
2023/01/31 01:50:38;;;;;;;17.00;2.70;;;4.40;99.90;;;;;;4974814;28;20236;-74
2023/01/31 01:53:09;;;;;;;10.50;2.10;;;4.40;99.90;;;;;;4974097;28;20561;-74
2023/01/31 01:55:40;;;;;;;18.73;2.70;;;4.40;99.90;;;;;;4974048;28;20249;-74
2023/01/31 01:58:10;;;;;;;13.17;2.30;;;4.40;99.90;;;;;;4968971;28;20213;-74
2023/01/31 02:00:39;;;;;;;12.27;2.37;;;4.40;99.90;;;;;;4974738;28;20217;-74
2023/01/31 02:03:07;;;;;;;19.83;2.83;;;4.40;99.90;;;;;;4974253;28;20216;-74
2023/01/31 02:05:40;;;;;;;16.77;3.23;;;4.50;99.90;;;;;;4964941;28;20732;-74
2023/01/31 02:08:07;;;;;;;13.33;2.93;;;4.40;99.90;;;;;;4967748;28;20212;-74
2023/01/31 02:10:40;;;;;;;19.07;2.80;;;4.40;99.90;;;;;;4974039;28;20671;-73
2023/01/31 02:13:07;;;;;;;14.03;2.40;;;4.40;99.90;;;;;;4973253;28;20206;-74
2023/01/31 02:15:35;;;;;;;14.13;3.40;;;4.40;99.90;;;;;;4973180;28;20676;-74
2023/01/31 02:18:03;;;;;;;12.93;2.20;;;4.40;99.90;;;;;;4974291;28;20220;-74
2023/01/31 02:21:14;;;;;;;18.57;2.33;;;4.40;99.90;;;;;;4973444;28;20205;-73
2023/01/31 02:24:03;;;;;;;16.90;2.57;;;4.40;99.90;;;;;;4974357;28;20205;-73
2023/01/31 02:27:04;;;;;;;11.30;1.90;;;4.30;99.90;;;;;;4973705;28;20574;-73
2023/01/31 02:30:02;;;;;;;12.70;1.97;;;4.30;99.90;;;;;;4963986;28;20672;-74
2023/01/31 02:32:58;;;;;;;12.30;2.13;;;4.30;99.90;;;;;;4973896;28;20546;-74
2023/01/31 02:35:42;;;;;;;12.90;1.80;;;4.30;99.90;;;;;;4974424;28;20216;-73
2023/01/31 02:38:20;;;;;;;10.30;1.80;;;4.40;99.90;;;;;;4973831;28;20679;-74
2023/01/31 02:40:52;;;;;;;4.07;1.10;;;4.50;99.90;;;;;;4973920;28;20209;-74
2023/01/31 02:43:23;;;;;;;14.50;2.10;;;4.60;99.90;;;;;;4973619;28;20589;-74
2023/01/31 02:45:56;;;;;;;14.73;2.40;;;4.60;99.90;;;;;;4973865;28;20194;-73
2023/01/31 02:48:34;;;;;;;9.73;2.40;;;4.60;99.90;;;;;;4973297;28;20193;-73
2023/01/31 02:51:07;;;;;;;10.20;2.03;;;4.50;99.90;;;;;;4957641;28;20209;-74
2023/01/31 02:53:36;;;;;;;7.87;1.50;;;4.40;99.90;;;;;;4972798;28;20210;-74
2023/01/31 02:56:14;;;;;;;10.80;2.50;;;4.40;99.90;;;;;;4973643;28;20224;-73
2023/01/31 02:58:44;;;;;;;11.47;1.80;;;4.40;99.90;;;;;;4972721;28;20212;-74
2023/01/31 03:01:15;;;;;;;9.47;2.00;;;4.30;99.90;;;;;;4973493;28;20671;-74
2023/01/31 03:03:43;;;;;;;13.73;2.10;;;4.30;99.90;;;;;;4973693;28;20204;-74
2023/01/31 03:06:34;;;;;;;11.13;1.83;;;4.30;99.90;;;;;;4972814;28;20224;-74
2023/01/31 03:09:06;;;;;;;9.20;2.03;;;4.30;99.90;;;;;;4972716;28;20198;-74
2023/01/31 03:11:39;;;;;;;7.47;1.90;;;4.30;99.90;;;;;;4973048;28;20209;-74
2023/01/31 03:14:17;;;;;;;11.53;2.40;;;4.20;99.90;;;;;;4971570;28;20214;-74
2023/01/31 03:19:45;;;;;;;10.30;2.20;;;4.30;99.90;;;;;;4972752;28;20212;-74
2023/01/31 03:22:16;;;;;;;13.83;2.50;;;4.30;99.90;;;;;;4972757;28;20197;-74
2023/01/31 03:24:44;;;;;;;12.77;2.27;;;4.40;99.90;;;;;;4972602;28;20197;-74
2023/01/31 03:27:11;;;;;;;15.43;3.00;;;4.40;99.90;;;;;;4972671;28;20202;-74
2023/01/31 03:29:39;;;;;;;15.23;2.73;;;4.40;99.90;;;;;;4973022;28;20735;-74
2023/01/31 03:32:11;;;;;;;13.73;3.27;;;4.40;99.90;;;;;;4972460;28;20205;-74
2023/01/31 03:34:40;;;;;;;13.90;2.67;;;4.50;99.90;;;;;;4973181;28;20268;-74
2023/01/31 03:37:15;;;;;;;10.47;2.70;;;4.40;99.90;;;;;;4955071;28;20229;-74
2023/01/31 03:39:46;;;;;;;15.20;2.67;;;4.40;99.90;;;;;;4956535;28;20652;-74
2023/01/31 03:42:19;;;;;;;11.10;2.90;;;4.50;99.90;;;;;;4972614;28;20679;-74
2023/01/31 03:44:54;;;;;;;15.83;5.50;;;4.50;99.90;;;;;;4972815;28;20671;-74
2023/01/31 03:47:25;;;;;;;15.47;3.00;;;4.50;99.90;;;;;;4972633;28;20255;-74
2023/01/31 03:49:55;;;;;;;16.77;3.17;;;4.50;99.90;;;;;;4952863;29;20214;-74
2023/01/31 03:52:29;;;;;;;11.07;2.37;;;4.50;99.90;;;;;;4968985;28;20209;-74
2023/01/31 03:54:59;;;;;;;17.87;2.90;;;4.50;99.90;;;;;;4973066;28;20543;-74
2023/01/31 03:57:31;;;;;;;10.00;2.43;;;4.50;99.90;;;;;;4972378;28;20244;-74
2023/01/31 04:00:00;;;;;;;9.90;2.27;;;4.50;99.90;;;;;;4972955;28;20209;-74
2023/01/31 04:02:32;;;;;;;16.43;2.70;;;4.40;99.90;;;;;;4972435;28;20201;-73
2023/01/31 04:05:06;;;;;;;9.13;2.37;;;4.40;99.90;;;;;;4972470;28;20193;-73
2023/01/31 04:07:33;;;;;;;14.47;3.10;;;4.30;99.90;;;;;;4973060;28;20193;-73
2023/01/31 04:10:00;;;;;;;14.27;2.80;;;4.20;99.90;;;;;;4972098;28;20205;-73
2023/01/31 04:12:27;;;;;;;14.73;2.40;;;4.20;99.90;;;;;;4971239;28;20198;-73
2023/01/31 04:14:54;;;;;;;15.77;3.13;;;4.20;99.90;;;;;;4971685;28;20205;-73
2023/01/31 04:17:21;;;;;;;12.87;2.40;;;4.10;99.90;;;;;;4972775;28;20225;-73
2023/01/31 04:19:48;;;;;;;12.90;3.33;;;4.10;99.90;;;;;;4971855;28;20206;-73
2023/01/31 04:22:16;;;;;;;11.67;2.53;;;4.00;99.90;;;;;;4972138;28;20197;-73
2023/01/31 04:24:42;;;;;;;18.67;4.97;;;4.00;99.90;;;;;;4972085;28;20202;-73
2023/01/31 04:27:09;;;;;;;12.57;3.13;;;3.90;99.90;;;;;;4972920;28;20213;-73
2023/01/31 04:29:36;;;;;;;11.23;3.10;;;4.00;99.90;;;;;;4971837;28;20652;-73
2023/01/31 04:32:03;;;;;;;10.77;2.67;;;3.90;99.90;;;;;;4971602;28;20214;-73
2023/01/31 04:34:30;;;;;;;19.83;3.90;;;3.90;99.90;;;;;;4972838;28;20304;-73
2023/01/31 04:36:56;;;;;;;11.63;2.93;;;3.90;99.90;;;;;;4972357;28;20225;-73
2023/01/31 04:39:25;;;;;;;14.53;2.63;;;3.90;99.90;;;;;;4976458;28;20660;-73
2023/01/31 04:41:51;;;;;;;13.53;2.60;;;3.90;99.90;;;;;;4975807;28;20205;-73
2023/01/31 04:44:18;;;;;;;16.20;2.97;;;4.00;99.90;;;;;;4976404;28;20220;-73
2023/01/31 04:46:45;;;;;;;14.37;2.97;;;4.10;99.90;;;;;;4975657;28;20201;-73
2023/01/31 04:49:12;;;;;;;17.80;2.77;;;4.20;99.90;;;;;;4975954;28;20205;-73
2023/01/31 04:51:39;;;;;;;16.60;3.10;;;4.20;99.90;;;;;;4975452;28;20656;-73
2023/01/31 04:54:06;;;;;;;12.93;2.93;;;4.10;99.90;;;;;;4976097;28;20214;-73
2023/01/31 04:56:34;;;;;;;10.30;2.50;;;4.10;99.90;;;;;;4975506;28;20676;-73
2023/01/31 04:59:01;;;;;;;16.17;2.77;;;4.00;99.90;;;;;;4976234;28;20657;-73
2023/01/31 05:01:29;;;;;;;15.10;2.73;;;4.00;99.90;;;;;;4958782;28;20579;-73
2023/01/31 05:03:56;;;;;;;12.57;2.50;;;3.90;99.90;;;;;;4975145;28;20205;-73
2023/01/31 05:06:22;;;;;;;14.93;2.40;;;3.90;99.90;;;;;;4976029;28;20205;-73
2023/01/31 05:08:51;;;;;;;9.83;2.20;;;3.90;99.90;;;;;;4975328;28;20220;-73
2023/01/31 05:11:18;;;;;;;20.10;2.90;;;3.80;99.90;;;;;;4975882;28;20304;-73
2023/01/31 05:13:47;;;;;;;8.33;2.60;;;3.80;99.90;;;;;;4973891;28;20210;-73
2023/01/31 05:16:14;;;;;;;8.67;1.93;;;3.80;99.90;;;;;;4975117;28;20206;-73
2023/01/31 05:18:40;;;;;;;10.77;2.03;;;3.80;99.90;;;;;;4975015;28;20201;-73
2023/01/31 05:21:08;;;;;;;18.13;2.43;;;3.80;99.90;;;;;;4974947;28;20216;-73
2023/01/31 05:23:35;;;;;;;7.20;2.00;;;3.90;99.90;;;;;;4975781;28;20229;-73
2023/01/31 05:26:02;;;;;;;15.93;2.77;;;4.00;99.90;;;;;;4975229;28;20668;-73
2023/01/31 05:28:29;;;;;;;9.77;3.10;;;3.90;99.90;;;;;;4975477;28;20218;-73
2023/01/31 05:31:04;;;;;;;14.00;2.73;;;3.90;99.90;;;;;;4975553;28;20603;-73
2023/01/31 05:33:32;;;;;;;10.13;2.33;;;3.90;99.90;;;;;;4974765;28;20212;-73
2023/01/31 05:36:00;;;;;;;12.67;1.93;;;4.00;99.90;;;;;;4975726;28;20574;-73
2023/01/31 05:38:27;;;;;;;11.80;2.30;;;4.00;99.90;;;;;;4974789;28;20241;-73
2023/01/31 05:40:53;;;;;;;15.33;2.10;;;3.90;99.90;;;;;;4975433;28;20201;-73
2023/01/31 05:43:20;;;;;;;14.83;2.43;;;3.90;99.90;;;;;;4974295;28;20209;-73
2023/01/31 05:45:48;;;;;;;13.60;2.43;;;3.90;99.90;;;;;;4967474;28;20198;-73
2023/01/31 05:48:16;;;;;;;7.27;2.30;;;3.90;99.90;;;;;;4974227;28;20241;-73
2023/01/31 05:50:43;;;;;;;9.80;2.17;;;4.00;99.90;;;;;;4974950;28;20206;-73
2023/01/31 05:53:10;;;;;;;11.00;2.40;;;4.00;99.90;;;;;;4974455;28;20221;-73
2023/01/31 05:55:37;;;;;;;11.87;2.60;;;4.00;99.90;;;;;;4974996;28;20567;-74
2023/01/31 05:58:04;;;;;;;13.00;3.20;;;4.00;99.90;;;;;;4974702;28;20692;-73
2023/01/31 06:00:31;;;;;;;11.93;2.93;;;4.00;99.90;;;;;;4974877;28;20206;-73
2023/01/31 06:02:58;;;;;;;18.00;3.93;;;4.00;99.90;;;;;;4974320;28;20226;-73
2023/01/31 06:05:27;;;;;;;11.47;2.70;;;4.10;99.90;;;;;;4974212;28;20213;-73
2023/01/31 06:07:54;;;;;;;17.07;3.70;;;4.10;99.90;;;;;;4974329;28;20224;-73
2023/01/31 06:10:21;;;;;;;17.73;3.30;;;4.20;99.90;;;;;;4974801;28;20321;-73
2023/01/31 06:12:48;;;;;;;12.37;2.30;;;4.10;99.90;;;;;;4966737;28;20209;-73
2023/01/31 06:15:15;;;;;;;14.73;3.30;;;4.10;99.90;;;;;;4973736;28;20208;-73
2023/01/31 06:17:41;;;;;;;9.73;3.00;;;4.20;99.90;;;;;;4974742;28;20715;-73
2023/01/31 06:20:09;;;;;;;13.20;3.23;;;4.20;99.90;;;;;;4973927;28;20225;-73
2023/01/31 06:22:37;;;;;;;14.40;3.17;;;4.20;99.90;;;;;;4973201;28;20217;-73
2023/01/31 06:25:05;;;;;;;13.43;3.87;;;4.10;99.90;;;;;;4973861;28;20562;-73
2023/01/31 06:27:32;;;;;;;9.77;3.47;;;4.20;99.90;;;;;;4974477;28;20202;-73
2023/01/31 06:29:59;;;;;;;8.97;2.83;;;4.20;99.90;;;;;;4973375;28;20578;-73
2023/01/31 06:32:26;;;;;;;14.43;3.80;;;4.30;99.90;;;;;;4973598;28;20577;-73
2023/01/31 06:34:52;;;;;;;12.93;3.67;;;4.20;99.90;;;;;;4974237;28;20211;-73
2023/01/31 06:37:19;;;;;;;17.00;3.80;;;4.20;99.90;;;;;;4973617;28;20236;-73
2023/01/31 06:39:47;;;;;;;11.87;3.33;;;4.30;99.90;;;;;;4974197;28;20210;-73
2023/01/31 06:42:14;;;;;;;11.77;3.63;;;4.20;99.90;;;;;;4973292;28;20210;-73
2023/01/31 06:44:41;;;;;;;17.23;4.33;;;4.30;99.90;;;;;;4974237;28;20224;-73
2023/01/31 06:47:07;;;;;;;16.23;5.57;;;4.30;99.90;;;;;;4972808;28;20197;-73
2023/01/31 06:49:34;;;;;;;12.53;3.80;;;4.30;99.90;;;;;;4973349;28;20209;-73
2023/01/31 06:52:01;;;;;;;17.13;4.00;;;4.30;99.90;;;;;;4973960;28;20212;-73
2023/01/31 06:54:28;;;;;;;14.90;3.50;;;4.40;99.90;;;;;;4973439;28;20213;-73
2023/01/31 06:56:56;;;;;;;14.17;3.70;;;4.40;99.90;;;;;;4973781;28;20232;-73
2023/01/31 06:59:22;;;;;;;17.63;4.03;;;4.30;99.90;;;;;;4974024;28;20220;-73
2023/01/31 07:01:49;;;;;;;17.50;5.53;;;4.30;99.90;;;;;;4972075;28;20206;-73
2023/01/31 07:04:16;;;;;;;15.43;4.20;;;4.50;99.90;;;;;;4972920;28;20217;-73
2023/01/31 07:06:43;;;;;;;16.63;5.03;;;4.40;99.90;;;;;;4973800;28;20542;-73
2023/01/31 07:09:10;;;;;;;22.40;4.50;;;4.40;99.90;;;;;;4973119;28;20209;-73
2023/01/31 07:11:37;;;;;;;18.00;4.63;;;4.50;99.90;;;;;;4973790;28;20202;-73
2023/01/31 07:14:05;;;;;;;13.47;4.63;;;4.50;99.90;;;;;;4972340;28;20210;-73
2023/01/31 07:16:32;;;;;;;17.43;5.90;;;4.40;99.90;;;;;;4973979;28;20205;-73
2023/01/31 07:18:59;;;;;;;20.80;5.90;;;4.50;99.90;;;;;;4972943;28;20232;-73
2023/01/31 07:21:26;;;;;;;16.40;4.93;;;4.50;99.90;;;;;;4973622;28;20780;-73
2023/01/31 07:23:52;;;;;;;14.70;4.83;;;4.50;99.90;;;;;;4972926;28;20241;-73
2023/01/31 07:26:19;;;;;;;15.37;4.97;;;4.50;99.90;;;;;;4973072;28;20210;-74
2023/01/31 07:28:46;;;;;;;19.83;8.40;;;4.60;99.90;;;;;;4973080;28;20660;-73
2023/01/31 07:31:14;;;;;;;15.53;6.27;;;4.60;99.90;;;;;;4973225;28;20210;-74
2023/01/31 07:33:42;;;;;;;19.00;6.07;;;4.60;99.90;;;;;;4973187;28;20201;-73
2023/01/31 07:36:13;;;;;;;20.33;7.43;;;4.60;99.90;;;;;;4972881;28;20236;-73
2023/01/31 07:38:40;;;;;;;17.10;6.67;;;4.60;99.90;;;;;;4973195;28;20257;-73
2023/01/31 07:41:09;;;;;;;18.10;7.50;;;4.70;99.90;;;;;;4973002;28;20679;-73
2023/01/31 07:43:36;;;;;;;19.67;8.30;;;4.60;99.90;;;;;;4973235;28;20214;-73
2023/01/31 07:46:07;;;;;;;21.83;8.17;;;4.60;99.90;;;;;;4972255;28;20209;-73
2023/01/31 07:48:35;;;;;;;24.57;8.03;;;4.60;99.90;;;;;;4972460;28;20204;-73
2023/01/31 07:51:03;;;;;;;25.60;9.03;;;4.70;99.90;;;;;;4972975;28;20209;-73
2023/01/31 07:53:32;;;;;;;26.90;8.43;;;4.70;99.90;;;;;;4973239;28;20213;-73
2023/01/31 07:56:06;;;;;;;21.80;8.17;;;4.70;99.90;;;;;;4973230;28;20218;-73
2023/01/31 07:58:34;;;;;;;23.70;7.97;;;4.80;99.90;;;;;;4972561;28;20230;-73
2023/01/31 08:03:47;;;;;;;17.23;7.10;;;4.90;99.90;;;;;;4973101;28;20208;-73
2023/01/31 08:06:14;;;;;;;24.23;8.43;;;5.00;99.90;;;;;;4973148;28;20214;-73
2023/01/31 08:08:42;;;;;;;19.67;7.27;;;5.00;99.90;;;;;;4972729;28;20213;-74
2023/01/31 08:11:09;;;;;;;21.70;7.27;;;5.00;99.90;;;;;;4972799;28;20213;-73
2023/01/31 08:13:37;;;;;;;22.27;7.77;;;5.10;99.90;;;;;;4974516;28;20201;-73
2023/01/31 08:16:06;;;;;;;18.53;7.63;;;5.10;99.90;;;;;;4976879;28;20201;-73
2023/01/31 08:18:33;;;;;;;21.20;8.37;;;5.10;99.90;;;;;;4977016;28;20236;-73
2023/01/31 08:21:01;;;;;;;19.23;7.83;;;5.10;99.90;;;;;;4976862;28;20205;-73
2023/01/31 08:23:28;;;;;;;23.83;8.47;;;5.20;99.90;;;;;;4976173;28;20205;-73
2023/01/31 08:26:00;;;;;;;21.20;8.57;;;5.20;99.90;;;;;;4976787;28;20205;-74
2023/01/31 08:28:27;;;;;;;22.57;8.47;;;5.30;99.90;;;;;;4976844;28;20669;-71
2023/01/31 08:30:54;;;;;;;28.60;9.30;;;5.40;99.90;;;;;;4976279;28;20201;-71
2023/01/31 08:33:21;;;;;;;26.27;9.20;;;5.50;99.90;;;;;;4976130;28;20566;-71
2023/01/31 08:35:47;;;;;;;19.90;8.93;;;5.60;99.90;;;;;;4976682;28;20624;-71
2023/01/31 08:38:15;;;;;;;19.70;7.90;;;5.60;99.90;;;;;;4976522;28;20252;-70
2023/01/31 08:40:43;;;;;;;23.00;8.97;;;5.60;99.90;;;;;;4975472;28;20213;-70
2023/01/31 08:43:10;;;;;;;21.40;7.80;;;5.50;99.90;;;;;;4975936;28;20253;-70
2023/01/31 08:45:37;;;;;;;20.17;7.93;;;5.50;99.90;;;;;;4976451;28;20210;-70
2023/01/31 08:48:04;;;;;;;22.27;8.17;;;5.60;99.90;;;;;;4975528;28;20201;-71
2023/01/31 08:50:32;;;;;;;21.63;8.13;;;5.60;99.90;;;;;;4975722;28;20210;-71
2023/01/31 08:53:01;;;;;;;17.87;7.80;;;5.70;99.90;;;;;;4976044;28;20208;-70
2023/01/31 08:55:31;;;;;;;18.13;7.10;;;5.70;99.90;;;;;;4975612;28;20213;-70
2023/01/31 08:57:58;;;;;;;19.87;7.50;;;5.70;99.90;;;;;;4975833;28;20598;-70
2023/01/31 09:00:25;;;;;;;24.63;7.73;;;5.80;99.90;;;;;;4975830;28;20233;-70
2023/01/31 09:02:52;;;;;;;25.57;8.37;;;5.80;99.90;;;;;;4975504;28;20201;-70
2023/01/31 09:05:19;;;;;;;19.20;8.47;;;5.90;99.90;;;;;;4975782;28;20665;-71
2023/01/31 09:07:46;;;;;;;22.07;8.50;;;5.90;99.90;;;;;;4976003;28;20229;-71
2023/01/31 09:10:13;;;;;;;17.40;7.30;;;5.90;99.90;;;;;;4975561;28;20213;-70
2023/01/31 09:12:41;;;;;;;22.63;8.30;;;5.90;99.90;;;;;;4975495;28;20221;-70
2023/01/31 09:15:09;;;;;;;20.97;8.03;;;5.90;99.90;;;;;;4974718;28;20212;-70
2023/01/31 09:17:35;;;;;;;17.90;8.90;;;5.90;99.90;;;;;;4975873;28;20229;-70
2023/01/31 09:20:05;;;;;;;18.83;8.60;;;5.90;99.90;;;;;;4962136;28;20577;-70
2023/01/31 09:22:32;;;;;;;26.17;8.77;;;6.00;99.90;;;;;;4971650;28;20217;-71
2023/01/31 09:24:59;;;;;;;18.07;8.50;;;6.00;99.90;;;;;;4974669;28;20680;-70
2023/01/31 09:27:26;;;;;;;22.20;8.40;;;5.90;99.90;;;;;;4975414;28;20599;-71
2023/01/31 09:29:54;;;;;;;19.20;8.77;;;6.00;99.90;;;;;;4974458;28;20571;-71
2023/01/31 09:32:21;;;;;;;24.27;9.43;;;6.00;99.90;;;;;;4974503;28;20213;-71
2023/01/31 09:34:48;;;;;;;17.93;8.57;;;6.00;99.90;;;;;;4975574;28;20205;-70
2023/01/31 09:37:15;;;;;;;19.67;8.90;;;6.00;99.90;;;;;;4974676;28;20205;-70
2023/01/31 09:39:42;;;;;;;23.17;8.57;;;6.00;99.90;;;;;;4974850;28;20230;-70
2023/01/31 09:42:18;;;;;;;22.07;8.80;;;5.90;99.90;;;;;;4974617;28;20214;-70
2023/01/31 09:44:50;;;;;;;22.87;9.43;;;6.00;99.90;;;;;;4975357;28;20676;-70
2023/01/31 09:47:23;;;;;;;19.80;9.13;;;5.90;99.90;;;;;;4975083;28;20212;-70
2023/01/31 09:49:53;;;;;;;23.50;8.90;;;5.90;99.90;;;;;;4975308;28;20205;-70
2023/01/31 09:52:22;;;;;;;22.27;9.20;;;5.80;99.90;;;;;;4974926;28;20213;-71
2023/01/31 09:54:49;;;;;;;24.37;9.67;;;5.70;99.90;;;;;;4975483;28;20201;-70
2023/01/31 09:57:29;;;;;;;21.93;9.33;;;5.60;99.90;;;;;;4975021;28;20233;-70
2023/01/31 10:00:05;;;;;;;19.60;8.90;;;5.60;99.90;;;;;;4974945;28;20563;-70
2023/01/31 10:03:13;;;;;;;23.90;9.60;;;5.40;99.90;;;;;;4974710;28;20209;-70
2023/01/31 10:05:45;;;;;;;25.27;9.97;;;5.20;99.90;;;;;;4971236;28;20209;-70
2023/01/31 10:08:20;;;;;;;23.03;10.37;;;5.20;99.90;;;;;;4975290;28;20202;-70
2023/01/31 10:10:51;;;;;;;18.83;8.70;;;5.20;99.90;;;;;;4974449;28;20208;-71
2023/01/31 10:13:24;;;;;;;23.57;9.97;;;5.00;99.90;;;;;;4974027;28;20648;-71
2023/01/31 10:15:53;;;;;;;20.10;9.53;;;5.00;99.90;;;;;;4974941;28;20645;-71
2023/01/31 10:18:26;;;;;;;18.23;8.77;;;5.00;99.90;;;;;;4974739;28;20229;-71
2023/01/31 10:20:57;;;;;;;18.00;8.67;;;5.00;99.90;;;;;;4974657;28;20604;-71
2023/01/31 10:23:29;;;;;;;16.97;7.13;;;5.00;99.90;;;;;;4974802;28;20708;-71
2023/01/31 10:25:59;;;;;;;22.50;7.50;;;5.00;99.90;;;;;;4973822;28;20256;-70
2023/01/31 10:28:32;;;;;;;18.97;7.67;;;5.00;99.90;;;;;;4974589;28;20202;-70
2023/01/31 10:31:03;;;;;;;14.13;7.23;;;5.00;99.90;;;;;;4974901;28;20564;-70
2023/01/31 10:33:38;;;;;;;19.30;7.60;;;5.00;99.90;;;;;;4974080;28;20210;-71
2023/01/31 10:36:13;;;;;;;11.33;6.23;;;5.00;99.90;;;;;;4974417;28;20212;-70
2023/01/31 10:38:51;;;;;;;11.87;5.90;;;5.10;99.90;;;;;;4974605;28;20220;-71
2023/01/31 10:41:22;;;;;;;14.43;6.53;;;5.20;99.90;;;;;;4974265;28;20213;-71
2023/01/31 10:43:56;;;;;;;13.53;6.23;;;5.20;99.90;;;;;;4973810;28;20308;-71
2023/01/31 10:46:23;;;;;;;15.47;5.77;;;5.20;99.90;;;;;;4970923;28;20198;-71
2023/01/31 10:48:52;;;;;;;15.47;6.60;;;5.30;99.90;;;;;;4972644;28;20260;-71
2023/01/31 10:51:32;;;;;;;10.93;6.30;;;5.30;99.90;;;;;;4973787;28;20209;-70
2023/01/31 10:54:12;;;;;;;13.30;5.87;;;5.30;99.90;;;;;;4973832;28;20783;-71
2023/01/31 10:56:42;;;;;;;11.97;5.77;;;5.40;99.90;;;;;;4973895;28;20216;-71
2023/01/31 10:59:16;;;;;;;10.90;5.87;;;5.40;99.90;;;;;;4973895;28;20239;-70
2023/01/31 11:01:42;;;;;;;9.63;5.50;;;5.40;99.90;;;;;;4973379;28;20209;-71
2023/01/31 11:04:24;;;;;;;13.20;6.13;;;5.50;99.90;;;;;;4972255;28;20210;-71
2023/01/31 11:06:51;;;;;;;13.13;6.30;;;5.50;99.90;;;;;;4973625;28;20205;-71
2023/01/31 11:09:20;;;;;;;10.67;5.30;;;5.60;99.90;;;;;;4973499;28;20217;-71
2023/01/31 11:11:58;;;;;;;16.73;6.40;;;5.60;99.90;;;;;;4973338;28;20198;-70
2023/01/31 11:14:25;;;;;;;12.20;5.83;;;5.60;99.90;;;;;;4973412;28;20660;-70
2023/01/31 11:16:59;;;;;;;18.27;6.77;;;5.60;99.90;;;;;;4973840;28;20217;-70
2023/01/31 11:19:33;;;;;;;14.67;6.30;;;5.70;99.90;;;;;;4972779;28;20221;-71
2023/01/31 11:22:00;;;;;;;15.87;7.77;;;5.80;99.90;;;;;;4972051;28;20205;-71
2023/01/31 11:24:30;;;;;;;13.03;5.73;;;5.80;99.90;;;;;;4972979;28;20228;-71
2023/01/31 11:27:00;;;;;;;14.77;6.20;;;5.80;99.90;;;;;;4973712;28;20209;-70
2023/01/31 11:29:29;;;;;;;16.83;6.97;;;5.80;99.90;;;;;;4973595;28;20566;-71
2023/01/31 11:31:57;;;;;;;12.00;6.30;;;5.80;99.90;;;;;;4973217;28;20657;-71
2023/01/31 11:34:26;;;;;;;19.07;6.97;;;5.90;99.90;;;;;;4973024;28;20629;-71
2023/01/31 11:37:03;;;;;;;12.90;6.40;;;5.90;99.90;;;;;;4973559;28;20206;-71
2023/01/31 11:39:32;;;;;;;13.07;6.37;;;5.80;99.90;;;;;;4972767;28;20226;-71
2023/01/31 11:42:06;;;;;;;14.77;6.87;;;5.80;99.90;;;;;;4972780;28;20293;-71
2023/01/31 11:44:33;;;;;;;11.90;6.03;;;5.80;99.90;;;;;;4973242;28;20296;-71
2023/01/31 11:47:03;;;;;;;15.40;6.40;;;5.80;99.90;;;;;;4975179;28;20574;-71
2023/01/31 11:49:33;;;;;;;15.47;7.50;;;5.80;99.90;;;;;;4979764;28;20200;-71
2023/01/31 11:52:11;;;;;;;13.30;6.57;;;5.80;99.90;;;;;;4979510;28;20548;-71
2023/01/31 11:54:43;;;;;;;11.67;6.50;;;5.80;99.90;;;;;;4979895;28;20345;-73
2023/01/31 11:57:24;;;;;;;14.43;7.63;;;5.80;99.90;;;;;;4978062;28;20554;-70
2023/01/31 11:59:54;;;;;;;12.47;6.63;;;5.80;99.90;;;;;;4978805;28;20312;-69
2023/01/31 12:02:30;;;;;;;20.03;7.93;;;5.70;99.90;;;;;;4979034;28;20292;-69
2023/01/31 12:04:58;;;;;;;17.03;7.87;;;5.70;99.90;;;;;;4978431;28;20296;-69
2023/01/31 12:07:29;;;;;;;15.67;8.17;;;5.70;99.90;;;;;;4978778;28;20206;-69
2023/01/31 12:09:56;;;;;;;18.43;8.73;;;5.70;99.90;;;;;;4979519;28;20281;-71
2023/01/31 12:12:30;;;;;;;20.67;8.30;;;5.70;99.90;;;;;;4977778;28;20205;-69
2023/01/31 12:15:01;;;;;;;13.83;7.83;;;5.80;99.90;;;;;;4978943;28;20208;-69
2023/01/31 12:17:31;;;;;;;14.67;7.93;;;5.80;99.90;;;;;;4978269;28;20292;-69
2023/01/31 12:20:19;;;;;;;16.87;8.17;;;5.80;99.90;;;;;;4977423;28;20320;-69
2023/01/31 12:22:55;;;;;;;17.07;8.27;;;5.80;99.90;;;;;;4977610;28;20241;-69
2023/01/31 12:25:31;;;;;;;16.87;8.83;;;5.70;99.90;;;;;;4977703;28;20682;-69
2023/01/31 12:28:10;;;;;;;17.83;9.20;;;5.80;99.90;;;;;;4977412;28;20646;-69
2023/01/31 12:31:02;;;;;;;17.40;8.80;;;5.80;99.90;;;;;;4977771;28;20288;-69
2023/01/31 12:33:54;;;;;;;15.60;10.20;;;5.80;99.90;;;;;;4977170;28;20241;-69
2023/01/31 12:36:33;;;;;;;23.30;10.93;;;5.90;99.90;;;;;;4978712;28;20635;-69
2023/01/31 12:39:16;;;;;;;21.67;10.63;;;5.90;99.90;;;;;;4978527;28;20264;-69
2023/01/31 12:41:58;;;;;;;17.97;9.50;;;5.90;99.90;;;;;;4977468;28;20212;-69
2023/01/31 12:44:38;;;;;;;21.90;10.57;;;5.90;99.90;;;;;;4975962;28;20233;-69
2023/01/31 12:47:28;;;;;;;20.97;10.13;;;5.90;99.90;;;;;;4977384;28;20711;-69
2023/01/31 12:50:05;;;;;;;16.87;9.87;;;5.80;99.90;;;;;;4978772;28;20202;-69
2023/01/31 12:52:42;;;;;;;18.77;10.23;;;5.90;99.90;;;;;;4975147;28;20206;-70
2023/01/31 12:55:25;;;;;;;18.10;9.93;;;5.80;99.90;;;;;;4976272;28;20289;-69
2023/01/31 12:58:04;;;;;;;19.33;11.00;;;5.90;99.90;;;;;;4976936;28;20672;-69
2023/01/31 13:00:43;;;;;;;20.87;10.60;;;5.90;99.90;;;;;;4973604;28;20261;-69
2023/01/31 13:03:34;;;;;;;19.07;10.40;;;5.80;99.90;;;;;;4971595;28;20696;-69
2023/01/31 13:06:07;;;;;;;20.63;9.80;;;5.80;99.90;;;;;;4975066;28;20241;-69
2023/01/31 13:08:36;;;;;;;18.93;9.83;;;5.80;99.90;;;;;;4974708;28;20248;-69
2023/01/31 13:11:09;;;;;;;15.97;10.33;;;5.80;99.90;;;;;;4974824;28;20703;-69